sensor_id;sensor_type;location;lat;lon;timestamp;P1;durP1;ratioP1;P2;durP2;ratioP2
77938;SDS011;67136;47.546;21.630;2023-04-06T00:02:10;6.53;;;2.50;;
77938;SDS011;67136;47.546;21.630;2023-04-06T00:05:13;6.05;;;2.70;;
77938;SDS011;67136;47.546;21.630;2023-04-06T00:08:15;5.47;;;2.70;;
77938;SDS011;67136;47.546;21.630;2023-04-06T00:11:18;6.15;;;2.70;;
77938;SDS011;67136;47.546;21.630;2023-04-06T00:14:22;6.43;;;2.83;;
77938;SDS011;67136;47.546;21.630;2023-04-06T00:17:25;5.80;;;2.33;;
77938;SDS011;67136;47.546;21.630;2023-04-06T00:20:27;5.32;;;2.75;;
77938;SDS011;67136;47.546;21.630;2023-04-06T00:23:30;7.35;;;2.97;;
77938;SDS011;67136;47.546;21.630;2023-04-06T00:26:33;4.78;;;2.50;;
77938;SDS011;67136;47.546;21.630;2023-04-06T00:29:36;5.55;;;2.55;;
77938;SDS011;67136;47.546;21.630;2023-04-06T00:32:38;4.60;;;2.43;;
77938;SDS011;67136;47.546;21.630;2023-04-06T00:35:42;7.18;;;3.00;;
77938;SDS011;67136;47.546;21.630;2023-04-06T00:38:44;5.07;;;2.75;;
77938;SDS011;67136;47.546;21.630;2023-04-06T00:41:49;5.62;;;2.75;;
77938;SDS011;67136;47.546;21.630;2023-04-06T00:45:00;5.68;;;2.42;;
77938;SDS011;67136;47.546;21.630;2023-04-06T00:48:04;7.93;;;2.83;;
77938;SDS011;67136;47.546;21.630;2023-04-06T00:51:07;7.65;;;2.65;;
77938;SDS011;67136;47.546;21.630;2023-04-06T00:54:10;7.30;;;2.70;;
77938;SDS011;67136;47.546;21.630;2023-04-06T00:57:13;8.27;;;2.90;;
77938;SDS011;67136;47.546;21.630;2023-04-06T01:00:17;6.47;;;2.60;;
77938;SDS011;67136;47.546;21.630;2023-04-06T01:03:20;6.27;;;2.97;;
77938;SDS011;67136;47.546;21.630;2023-04-06T01:06:23;7.40;;;3.05;;
77938;SDS011;67136;47.546;21.630;2023-04-06T01:09:27;8.35;;;3.10;;
77938;SDS011;67136;47.546;21.630;2023-04-06T01:12:33;5.85;;;2.78;;
77938;SDS011;67136;47.546;21.630;2023-04-06T01:15:36;7.93;;;3.15;;
77938;SDS011;67136;47.546;21.630;2023-04-06T01:18:42;6.87;;;2.93;;
77938;SDS011;67136;47.546;21.630;2023-04-06T01:21:45;6.60;;;3.10;;
77938;SDS011;67136;47.546;21.630;2023-04-06T01:24:48;10.07;;;3.33;;
77938;SDS011;67136;47.546;21.630;2023-04-06T01:27:51;6.60;;;2.70;;
77938;SDS011;67136;47.546;21.630;2023-04-06T01:30:54;7.55;;;3.30;;
77938;SDS011;67136;47.546;21.630;2023-04-06T01:33:58;7.03;;;3.17;;
77938;SDS011;67136;47.546;21.630;2023-04-06T01:37:01;9.73;;;3.30;;
77938;SDS011;67136;47.546;21.630;2023-04-06T01:40:04;8.63;;;3.00;;
77938;SDS011;67136;47.546;21.630;2023-04-06T01:43:09;6.10;;;2.60;;
77938;SDS011;67136;47.546;21.630;2023-04-06T01:46:13;6.18;;;3.35;;
77938;SDS011;67136;47.546;21.630;2023-04-06T01:49:17;8.63;;;3.43;;
77938;SDS011;67136;47.546;21.630;2023-04-06T01:52:21;6.72;;;2.50;;
77938;SDS011;67136;47.546;21.630;2023-04-06T01:55:24;7.25;;;3.20;;
77938;SDS011;67136;47.546;21.630;2023-04-06T01:58:28;5.68;;;2.80;;
77938;SDS011;67136;47.546;21.630;2023-04-06T02:01:31;6.65;;;2.97;;
77938;SDS011;67136;47.546;21.630;2023-04-06T02:04:37;7.67;;;3.47;;
77938;SDS011;67136;47.546;21.630;2023-04-06T02:07:40;7.55;;;3.58;;
77938;SDS011;67136;47.546;21.630;2023-04-06T02:10:46;10.75;;;2.80;;
77938;SDS011;67136;47.546;21.630;2023-04-06T02:13:50;7.62;;;3.42;;
77938;SDS011;67136;47.546;21.630;2023-04-06T02:16:53;5.50;;;3.15;;
77938;SDS011;67136;47.546;21.630;2023-04-06T02:19:56;7.70;;;3.23;;
77938;SDS011;67136;47.546;21.630;2023-04-06T02:22:59;5.80;;;3.28;;
77938;SDS011;67136;47.546;21.630;2023-04-06T02:26:02;7.28;;;3.00;;
77938;SDS011;67136;47.546;21.630;2023-04-06T02:29:05;7.85;;;3.65;;
77938;SDS011;67136;47.546;21.630;2023-04-06T02:32:09;9.93;;;3.55;;
77938;SDS011;67136;47.546;21.630;2023-04-06T02:35:11;6.10;;;2.90;;
77938;SDS011;67136;47.546;21.630;2023-04-06T02:38:15;7.32;;;2.75;;
77938;SDS011;67136;47.546;21.630;2023-04-06T02:41:19;7.45;;;3.45;;
77938;SDS011;67136;47.546;21.630;2023-04-06T02:44:22;6.53;;;3.37;;
77938;SDS011;67136;47.546;21.630;2023-04-06T02:47:25;5.03;;;2.92;;
77938;SDS011;67136;47.546;21.630;2023-04-06T02:50:28;5.47;;;3.00;;
77938;SDS011;67136;47.546;21.630;2023-04-06T02:53:31;7.22;;;3.60;;
77938;SDS011;67136;47.546;21.630;2023-04-06T02:56:34;6.55;;;3.45;;
77938;SDS011;67136;47.546;21.630;2023-04-06T02:59:36;7.85;;;3.60;;
77938;SDS011;67136;47.546;21.630;2023-04-06T03:02:40;8.20;;;4.10;;
77938;SDS011;67136;47.546;21.630;2023-04-06T03:05:44;10.63;;;5.27;;
77938;SDS011;67136;47.546;21.630;2023-04-06T03:08:48;8.45;;;4.70;;
77938;SDS011;67136;47.546;21.630;2023-04-06T03:11:50;9.23;;;4.53;;
77938;SDS011;67136;47.546;21.630;2023-04-06T03:14:53;6.97;;;3.90;;
77938;SDS011;67136;47.546;21.630;2023-04-06T03:17:57;10.90;;;4.37;;
77938;SDS011;67136;47.546;21.630;2023-04-06T03:21:03;11.33;;;4.17;;
77938;SDS011;67136;47.546;21.630;2023-04-06T03:24:07;10.23;;;4.03;;
77938;SDS011;67136;47.546;21.630;2023-04-06T03:27:10;8.55;;;4.25;;
77938;SDS011;67136;47.546;21.630;2023-04-06T03:30:14;12.07;;;4.80;;
77938;SDS011;67136;47.546;21.630;2023-04-06T03:33:19;9.57;;;4.27;;
77938;SDS011;67136;47.546;21.630;2023-04-06T03:36:23;9.30;;;4.35;;
77938;SDS011;67136;47.546;21.630;2023-04-06T03:39:27;8.50;;;4.53;;
77938;SDS011;67136;47.546;21.630;2023-04-06T03:42:30;10.77;;;4.37;;
77938;SDS011;67136;47.546;21.630;2023-04-06T03:45:33;10.27;;;5.37;;
77938;SDS011;67136;47.546;21.630;2023-04-06T03:48:36;10.13;;;4.80;;
77938;SDS011;67136;47.546;21.630;2023-04-06T03:51:39;9.88;;;4.78;;
77938;SDS011;67136;47.546;21.630;2023-04-06T03:54:42;9.45;;;5.05;;
77938;SDS011;67136;47.546;21.630;2023-04-06T03:57:45;8.80;;;4.72;;
77938;SDS011;67136;47.546;21.630;2023-04-06T04:00:48;10.38;;;4.82;;
77938;SDS011;67136;47.546;21.630;2023-04-06T04:03:51;10.43;;;4.47;;
77938;SDS011;67136;47.546;21.630;2023-04-06T04:06:54;10.88;;;5.10;;
77938;SDS011;67136;47.546;21.630;2023-04-06T04:09:57;10.80;;;5.32;;
77938;SDS011;67136;47.546;21.630;2023-04-06T04:12:59;10.88;;;4.65;;
77938;SDS011;67136;47.546;21.630;2023-04-06T04:16:02;8.00;;;3.95;;
77938;SDS011;67136;47.546;21.630;2023-04-06T04:19:05;9.07;;;4.30;;
77938;SDS011;67136;47.546;21.630;2023-04-06T04:22:08;12.20;;;4.32;;
77938;SDS011;67136;47.546;21.630;2023-04-06T04:25:13;9.10;;;4.43;;
77938;SDS011;67136;47.546;21.630;2023-04-06T04:28:17;12.32;;;5.07;;
77938;SDS011;67136;47.546;21.630;2023-04-06T04:31:20;7.97;;;4.82;;
77938;SDS011;67136;47.546;21.630;2023-04-06T04:34:26;8.13;;;4.23;;
77938;SDS011;67136;47.546;21.630;2023-04-06T04:37:28;9.75;;;4.55;;
77938;SDS011;67136;47.546;21.630;2023-04-06T04:40:32;9.07;;;4.32;;
77938;SDS011;67136;47.546;21.630;2023-04-06T04:43:36;10.88;;;4.57;;
77938;SDS011;67136;47.546;21.630;2023-04-06T04:46:39;8.50;;;4.28;;
77938;SDS011;67136;47.546;21.630;2023-04-06T04:49:44;11.70;;;4.80;;
77938;SDS011;67136;47.546;21.630;2023-04-06T04:52:49;7.53;;;3.83;;
77938;SDS011;67136;47.546;21.630;2023-04-06T04:55:53;8.63;;;4.32;;
77938;SDS011;67136;47.546;21.630;2023-04-06T04:58:57;19.40;;;4.50;;
77938;SDS011;67136;47.546;21.630;2023-04-06T05:02:01;7.28;;;3.65;;
77938;SDS011;67136;47.546;21.630;2023-04-06T05:05:05;12.00;;;3.87;;
77938;SDS011;67136;47.546;21.630;2023-04-06T05:08:08;9.63;;;3.50;;
77938;SDS011;67136;47.546;21.630;2023-04-06T05:11:11;7.45;;;3.60;;
77938;SDS011;67136;47.546;21.630;2023-04-06T05:14:15;7.03;;;3.40;;
77938;SDS011;67136;47.546;21.630;2023-04-06T05:17:18;7.68;;;3.60;;
77938;SDS011;67136;47.546;21.630;2023-04-06T05:20:21;6.03;;;3.33;;
77938;SDS011;67136;47.546;21.630;2023-04-06T05:23:24;10.40;;;3.47;;
77938;SDS011;67136;47.546;21.630;2023-04-06T05:26:27;5.75;;;3.42;;
77938;SDS011;67136;47.546;21.630;2023-04-06T05:29:30;10.65;;;3.58;;
77938;SDS011;67136;47.546;21.630;2023-04-06T05:32:33;8.15;;;3.50;;
77938;SDS011;67136;47.546;21.630;2023-04-06T05:35:36;11.50;;;4.03;;
77938;SDS011;67136;47.546;21.630;2023-04-06T05:38:42;9.47;;;3.53;;
77938;SDS011;67136;47.546;21.630;2023-04-06T05:41:47;6.82;;;3.62;;
77938;SDS011;67136;47.546;21.630;2023-04-06T05:44:52;10.80;;;3.58;;
77938;SDS011;67136;47.546;21.630;2023-04-06T05:47:56;8.43;;;3.83;;
77938;SDS011;67136;47.546;21.630;2023-04-06T05:50:59;8.97;;;3.57;;
77938;SDS011;67136;47.546;21.630;2023-04-06T05:54:03;20.10;;;4.10;;
77938;SDS011;67136;47.546;21.630;2023-04-06T05:57:09;8.50;;;3.85;;
77938;SDS011;67136;47.546;21.630;2023-04-06T06:00:13;9.23;;;4.30;;
77938;SDS011;67136;47.546;21.630;2023-04-06T06:03:19;8.10;;;3.58;;
77938;SDS011;67136;47.546;21.630;2023-04-06T06:06:22;8.00;;;3.67;;
77938;SDS011;67136;47.546;21.630;2023-04-06T06:09:26;11.27;;;3.77;;
77938;SDS011;67136;47.546;21.630;2023-04-06T06:12:30;7.95;;;3.72;;
77938;SDS011;67136;47.546;21.630;2023-04-06T06:15:34;6.47;;;3.55;;
77938;SDS011;67136;47.546;21.630;2023-04-06T06:18:37;6.57;;;3.50;;
77938;SDS011;67136;47.546;21.630;2023-04-06T06:21:41;6.27;;;3.30;;
77938;SDS011;67136;47.546;21.630;2023-04-06T06:24:44;7.97;;;4.00;;
77938;SDS011;67136;47.546;21.630;2023-04-06T06:27:47;12.90;;;4.57;;
77938;SDS011;67136;47.546;21.630;2023-04-06T06:30:51;7.10;;;3.80;;
77938;SDS011;67136;47.546;21.630;2023-04-06T06:33:54;6.03;;;3.55;;
77938;SDS011;67136;47.546;21.630;2023-04-06T06:36:57;11.17;;;4.33;;
77938;SDS011;67136;47.546;21.630;2023-04-06T06:40:00;6.43;;;3.80;;
77938;SDS011;67136;47.546;21.630;2023-04-06T06:43:04;6.97;;;3.85;;
77938;SDS011;67136;47.546;21.630;2023-04-06T06:46:08;6.50;;;3.83;;
77938;SDS011;67136;47.546;21.630;2023-04-06T06:49:10;7.03;;;3.37;;
77938;SDS011;67136;47.546;21.630;2023-04-06T06:52:14;6.33;;;3.70;;
77938;SDS011;67136;47.546;21.630;2023-04-06T06:55:18;7.23;;;4.00;;
77938;SDS011;67136;47.546;21.630;2023-04-06T06:58:23;7.60;;;4.35;;
77938;SDS011;67136;47.546;21.630;2023-04-06T07:01:26;8.82;;;4.15;;
77938;SDS011;67136;47.546;21.630;2023-04-06T07:04:29;8.80;;;4.45;;
77938;SDS011;67136;47.546;21.630;2023-04-06T07:07:32;9.63;;;4.83;;
77938;SDS011;67136;47.546;21.630;2023-04-06T07:10:38;8.60;;;4.50;;
77938;SDS011;67136;47.546;21.630;2023-04-06T07:13:42;9.07;;;4.95;;
77938;SDS011;67136;47.546;21.630;2023-04-06T07:16:45;7.28;;;4.35;;
77938;SDS011;67136;47.546;21.630;2023-04-06T07:19:50;6.03;;;2.83;;
77938;SDS011;67136;47.546;21.630;2023-04-06T07:22:53;7.10;;;4.20;;
77938;SDS011;67136;47.546;21.630;2023-04-06T07:25:57;6.97;;;4.17;;
77938;SDS011;67136;47.546;21.630;2023-04-06T07:29:00;9.27;;;4.85;;
77938;SDS011;67136;47.546;21.630;2023-04-06T07:32:03;8.57;;;4.37;;
77938;SDS011;67136;47.546;21.630;2023-04-06T07:35:06;9.15;;;5.25;;
77938;SDS011;67136;47.546;21.630;2023-04-06T07:38:09;7.67;;;4.30;;
77938;SDS011;67136;47.546;21.630;2023-04-06T07:41:13;7.70;;;4.57;;
77938;SDS011;67136;47.546;21.630;2023-04-06T07:44:17;8.80;;;5.05;;
77938;SDS011;67136;47.546;21.630;2023-04-06T07:47:20;10.10;;;4.93;;
77938;SDS011;67136;47.546;21.630;2023-04-06T07:50:41;9.85;;;5.28;;
77938;SDS011;67136;47.546;21.630;2023-04-06T07:53:45;7.97;;;4.70;;
77938;SDS011;67136;47.546;21.630;2023-04-06T07:56:47;10.30;;;5.67;;
77938;SDS011;67136;47.546;21.630;2023-04-06T07:59:51;7.28;;;4.50;;
77938;SDS011;67136;47.546;21.630;2023-04-06T08:02:55;12.15;;;6.05;;
77938;SDS011;67136;47.546;21.630;2023-04-06T08:05:58;9.98;;;6.20;;
77938;SDS011;67136;47.546;21.630;2023-04-06T08:09:00;12.67;;;6.20;;
77938;SDS011;67136;47.546;21.630;2023-04-06T08:12:03;8.87;;;4.57;;
77938;SDS011;67136;47.546;21.630;2023-04-06T08:15:06;12.90;;;6.10;;
77938;SDS011;67136;47.546;21.630;2023-04-06T08:18:12;10.57;;;6.18;;
77938;SDS011;67136;47.546;21.630;2023-04-06T08:21:14;13.80;;;7.30;;
77938;SDS011;67136;47.546;21.630;2023-04-06T08:24:20;10.43;;;5.53;;
77938;SDS011;67136;47.546;21.630;2023-04-06T08:27:23;10.60;;;6.03;;
77938;SDS011;67136;47.546;21.630;2023-04-06T08:30:26;9.52;;;5.72;;
77938;SDS011;67136;47.546;21.630;2023-04-06T08:33:33;8.88;;;5.62;;
77938;SDS011;67136;47.546;21.630;2023-04-06T08:36:41;14.60;;;5.80;;
77938;SDS011;67136;47.546;21.630;2023-04-06T08:39:44;11.30;;;5.60;;
77938;SDS011;67136;47.546;21.630;2023-04-06T08:42:56;11.63;;;6.57;;
77938;SDS011;67136;47.546;21.630;2023-04-06T08:46:04;14.65;;;6.20;;
77938;SDS011;67136;47.546;21.630;2023-04-06T08:49:07;11.52;;;6.05;;
77938;SDS011;67136;47.546;21.630;2023-04-06T08:52:10;11.15;;;6.50;;
77938;SDS011;67136;47.546;21.630;2023-04-06T08:55:13;10.53;;;5.77;;
77938;SDS011;67136;47.546;21.630;2023-04-06T08:58:17;9.03;;;6.23;;
77938;SDS011;67136;47.546;21.630;2023-04-06T09:01:38;11.43;;;6.30;;
77938;SDS011;67136;47.546;21.630;2023-04-06T09:04:44;8.35;;;5.53;;
77938;SDS011;67136;47.546;21.630;2023-04-06T09:07:52;10.18;;;5.97;;
77938;SDS011;67136;47.546;21.630;2023-04-06T09:10:55;8.70;;;5.67;;
77938;SDS011;67136;47.546;21.630;2023-04-06T09:13:58;10.70;;;6.80;;
77938;SDS011;67136;47.546;21.630;2023-04-06T09:17:00;12.45;;;6.95;;
77938;SDS011;67136;47.546;21.630;2023-04-06T09:20:03;11.88;;;7.22;;
77938;SDS011;67136;47.546;21.630;2023-04-06T09:23:06;12.73;;;6.22;;
77938;SDS011;67136;47.546;21.630;2023-04-06T09:26:20;10.57;;;6.77;;
77938;SDS011;67136;47.546;21.630;2023-04-06T09:29:23;8.57;;;5.40;;
77938;SDS011;67136;47.546;21.630;2023-04-06T09:32:29;11.80;;;6.32;;
77938;SDS011;67136;47.546;21.630;2023-04-06T09:35:31;13.70;;;6.82;;
77938;SDS011;67136;47.546;21.630;2023-04-06T09:38:38;13.27;;;6.75;;
77938;SDS011;67136;47.546;21.630;2023-04-06T09:41:53;11.23;;;6.83;;
77938;SDS011;67136;47.546;21.630;2023-04-06T09:44:58;13.07;;;6.40;;
77938;SDS011;67136;47.546;21.630;2023-04-06T09:48:01;11.52;;;7.25;;
77938;SDS011;67136;47.546;21.630;2023-04-06T09:51:06;11.23;;;6.95;;
77938;SDS011;67136;47.546;21.630;2023-04-06T09:54:10;11.10;;;6.87;;
77938;SDS011;67136;47.546;21.630;2023-04-06T10:00:49;16.50;;;6.90;;
77938;SDS011;67136;47.546;21.630;2023-04-06T10:07:16;12.60;;;6.12;;
77938;SDS011;67136;47.546;21.630;2023-04-06T10:10:20;12.60;;;6.70;;
77938;SDS011;67136;47.546;21.630;2023-04-06T10:13:23;8.57;;;5.00;;
77938;SDS011;67136;47.546;21.630;2023-04-06T10:16:27;10.93;;;5.93;;
77938;SDS011;67136;47.546;21.630;2023-04-06T10:19:40;9.68;;;4.93;;
77938;SDS011;67136;47.546;21.630;2023-04-06T10:23:05;8.13;;;4.75;;
77938;SDS011;67136;47.546;21.630;2023-04-06T10:26:15;8.57;;;4.72;;
77938;SDS011;67136;47.546;21.630;2023-04-06T10:29:19;10.67;;;5.93;;
77938;SDS011;67136;47.546;21.630;2023-04-06T10:32:31;9.93;;;6.67;;
77938;SDS011;67136;47.546;21.630;2023-04-06T10:35:38;14.90;;;6.00;;
77938;SDS011;67136;47.546;21.630;2023-04-06T10:38:41;9.13;;;6.22;;
77938;SDS011;67136;47.546;21.630;2023-04-06T10:41:45;10.30;;;6.47;;
77938;SDS011;67136;47.546;21.630;2023-04-06T10:44:50;10.27;;;5.50;;
77938;SDS011;67136;47.546;21.630;2023-04-06T10:47:53;10.77;;;6.63;;
77938;SDS011;67136;47.546;21.630;2023-04-06T10:50:56;11.77;;;7.40;;
77938;SDS011;67136;47.546;21.630;2023-04-06T10:53:59;11.98;;;7.93;;
77938;SDS011;67136;47.546;21.630;2023-04-06T10:57:02;14.13;;;7.07;;
77938;SDS011;67136;47.546;21.630;2023-04-06T11:00:06;11.53;;;7.73;;
77938;SDS011;67136;47.546;21.630;2023-04-06T11:03:13;14.73;;;7.33;;
77938;SDS011;67136;47.546;21.630;2023-04-06T11:06:23;14.55;;;8.68;;
77938;SDS011;67136;47.546;21.630;2023-04-06T11:09:31;13.75;;;8.32;;
77938;SDS011;67136;47.546;21.630;2023-04-06T11:12:34;9.02;;;6.25;;
77938;SDS011;67136;47.546;21.630;2023-04-06T11:15:37;14.87;;;9.33;;
77938;SDS011;67136;47.546;21.630;2023-04-06T11:22:10;14.48;;;8.20;;
77938;SDS011;67136;47.546;21.630;2023-04-06T11:25:12;14.05;;;8.95;;
77938;SDS011;67136;47.546;21.630;2023-04-06T11:28:15;15.40;;;9.35;;
77938;SDS011;67136;47.546;21.630;2023-04-06T11:31:18;16.53;;;9.53;;
77938;SDS011;67136;47.546;21.630;2023-04-06T11:34:21;18.80;;;9.40;;
77938;SDS011;67136;47.546;21.630;2023-04-06T11:37:26;12.73;;;8.07;;
77938;SDS011;67136;47.546;21.630;2023-04-06T11:40:30;16.23;;;9.30;;
77938;SDS011;67136;47.546;21.630;2023-04-06T11:43:33;11.70;;;7.85;;
77938;SDS011;67136;47.546;21.630;2023-04-06T11:46:36;11.93;;;6.60;;
77938;SDS011;67136;47.546;21.630;2023-04-06T11:49:40;14.53;;;8.13;;
77938;SDS011;67136;47.546;21.630;2023-04-06T11:52:43;15.23;;;8.50;;
77938;SDS011;67136;47.546;21.630;2023-04-06T11:55:46;13.13;;;8.25;;
77938;SDS011;67136;47.546;21.630;2023-04-06T11:58:49;14.82;;;8.55;;
77938;SDS011;67136;47.546;21.630;2023-04-06T12:01:52;12.13;;;6.87;;
77938;SDS011;67136;47.546;21.630;2023-04-06T12:04:55;16.93;;;8.37;;
77938;SDS011;67136;47.546;21.630;2023-04-06T12:07:58;11.85;;;8.07;;
77938;SDS011;67136;47.546;21.630;2023-04-06T12:11:04;10.43;;;6.32;;
77938;SDS011;67136;47.546;21.630;2023-04-06T12:14:07;13.57;;;8.88;;
77938;SDS011;67136;47.546;21.630;2023-04-06T12:17:10;11.90;;;7.93;;
77938;SDS011;67136;47.546;21.630;2023-04-06T12:20:12;11.60;;;7.10;;
77938;SDS011;67136;47.546;21.630;2023-04-06T12:23:27;13.30;;;7.75;;
77938;SDS011;67136;47.546;21.630;2023-04-06T12:26:30;11.63;;;7.43;;
77938;SDS011;67136;47.546;21.630;2023-04-06T12:29:34;11.65;;;7.85;;
77938;SDS011;67136;47.546;21.630;2023-04-06T12:32:36;11.77;;;7.13;;
77938;SDS011;67136;47.546;21.630;2023-04-06T12:35:39;13.00;;;7.27;;
77938;SDS011;67136;47.546;21.630;2023-04-06T12:38:42;12.13;;;7.50;;
77938;SDS011;67136;47.546;21.630;2023-04-06T12:41:47;12.65;;;7.75;;
77938;SDS011;67136;47.546;21.630;2023-04-06T12:44:49;13.23;;;7.95;;
77938;SDS011;67136;47.546;21.630;2023-04-06T12:47:52;13.60;;;8.30;;
77938;SDS011;67136;47.546;21.630;2023-04-06T12:50:58;13.23;;;8.00;;
77938;SDS011;67136;47.546;21.630;2023-04-06T12:54:02;15.45;;;9.00;;
77938;SDS011;67136;47.546;21.630;2023-04-06T12:57:05;10.77;;;6.75;;
77938;SDS011;67136;47.546;21.630;2023-04-06T13:00:08;9.93;;;5.87;;
77938;SDS011;67136;47.546;21.630;2023-04-06T13:03:11;10.50;;;7.00;;
77938;SDS011;67136;47.546;21.630;2023-04-06T13:06:14;13.00;;;7.90;;
77938;SDS011;67136;47.546;21.630;2023-04-06T13:09:17;16.33;;;8.15;;
77938;SDS011;67136;47.546;21.630;2023-04-06T13:12:20;14.23;;;8.23;;
77938;SDS011;67136;47.546;21.630;2023-04-06T13:15:22;12.37;;;7.57;;
77938;SDS011;67136;47.546;21.630;2023-04-06T13:18:25;12.63;;;7.83;;
77938;SDS011;67136;47.546;21.630;2023-04-06T13:21:28;13.87;;;8.10;;
77938;SDS011;67136;47.546;21.630;2023-04-06T13:24:31;16.37;;;8.30;;
77938;SDS011;67136;47.546;21.630;2023-04-06T13:27:33;14.10;;;8.00;;
77938;SDS011;67136;47.546;21.630;2023-04-06T13:30:38;13.73;;;7.43;;
77938;SDS011;67136;47.546;21.630;2023-04-06T13:33:40;12.97;;;8.03;;
77938;SDS011;67136;47.546;21.630;2023-04-06T13:36:43;13.43;;;8.00;;
77938;SDS011;67136;47.546;21.630;2023-04-06T13:39:46;15.80;;;8.43;;
77938;SDS011;67136;47.546;21.630;2023-04-06T13:42:48;13.55;;;9.02;;
77938;SDS011;67136;47.546;21.630;2023-04-06T13:45:51;13.02;;;7.50;;
77938;SDS011;67136;47.546;21.630;2023-04-06T13:48:57;14.20;;;8.37;;
77938;SDS011;67136;47.546;21.630;2023-04-06T13:51:59;14.27;;;8.33;;
77938;SDS011;67136;47.546;21.630;2023-04-06T13:55:02;13.30;;;8.10;;
77938;SDS011;67136;47.546;21.630;2023-04-06T13:58:05;13.27;;;7.93;;
77938;SDS011;67136;47.546;21.630;2023-04-06T14:01:08;16.05;;;7.47;;
77938;SDS011;67136;47.546;21.630;2023-04-06T14:04:13;15.43;;;7.83;;
77938;SDS011;67136;47.546;21.630;2023-04-06T14:07:15;12.33;;;7.33;;
77938;SDS011;67136;47.546;21.630;2023-04-06T14:10:18;14.40;;;7.70;;
77938;SDS011;67136;47.546;21.630;2023-04-06T14:13:23;9.65;;;5.93;;
77938;SDS011;67136;47.546;21.630;2023-04-06T14:16:25;9.50;;;5.85;;
77938;SDS011;67136;47.546;21.630;2023-04-06T14:19:28;10.23;;;5.97;;
77938;SDS011;67136;47.546;21.630;2023-04-06T14:22:31;8.13;;;4.97;;
77938;SDS011;67136;47.546;21.630;2023-04-06T14:25:34;8.70;;;5.68;;
77938;SDS011;67136;47.546;21.630;2023-04-06T14:28:37;10.80;;;5.82;;
77938;SDS011;67136;47.546;21.630;2023-04-06T14:31:39;8.50;;;5.35;;
77938;SDS011;67136;47.546;21.630;2023-04-06T14:34:42;9.97;;;5.93;;
77938;SDS011;67136;47.546;21.630;2023-04-06T14:37:44;9.00;;;5.60;;
77938;SDS011;67136;47.546;21.630;2023-04-06T14:40:47;9.60;;;4.93;;
77938;SDS011;67136;47.546;21.630;2023-04-06T14:43:50;10.32;;;5.68;;
77938;SDS011;67136;47.546;21.630;2023-04-06T14:46:54;10.13;;;5.37;;
77938;SDS011;67136;47.546;21.630;2023-04-06T14:49:57;10.67;;;5.80;;
77938;SDS011;67136;47.546;21.630;2023-04-06T14:53:00;11.33;;;6.60;;
77938;SDS011;67136;47.546;21.630;2023-04-06T14:56:02;9.40;;;5.82;;
77938;SDS011;67136;47.546;21.630;2023-04-06T14:59:05;10.10;;;6.10;;
77938;SDS011;67136;47.546;21.630;2023-04-06T15:02:08;10.82;;;5.57;;
77938;SDS011;67136;47.546;21.630;2023-04-06T15:05:10;9.83;;;6.30;;
77938;SDS011;67136;47.546;21.630;2023-04-06T15:08:13;8.17;;;5.43;;
77938;SDS011;67136;47.546;21.630;2023-04-06T15:11:17;9.27;;;6.07;;
77938;SDS011;67136;47.546;21.630;2023-04-06T15:14:19;10.75;;;6.75;;
77938;SDS011;67136;47.546;21.630;2023-04-06T15:17:22;9.32;;;5.93;;
77938;SDS011;67136;47.546;21.630;2023-04-06T15:20:25;10.63;;;6.47;;
77938;SDS011;67136;47.546;21.630;2023-04-06T15:23:28;12.77;;;6.87;;
77938;SDS011;67136;47.546;21.630;2023-04-06T15:26:31;11.10;;;6.50;;
77938;SDS011;67136;47.546;21.630;2023-04-06T15:29:34;11.20;;;6.43;;
77938;SDS011;67136;47.546;21.630;2023-04-06T15:32:37;10.90;;;6.55;;
77938;SDS011;67136;47.546;21.630;2023-04-06T15:35:41;12.83;;;5.80;;
77938;SDS011;67136;47.546;21.630;2023-04-06T15:38:44;13.13;;;6.77;;
77938;SDS011;67136;47.546;21.630;2023-04-06T15:41:47;10.45;;;6.57;;
77938;SDS011;67136;47.546;21.630;2023-04-06T15:44:49;9.88;;;6.18;;
77938;SDS011;67136;47.546;21.630;2023-04-06T15:47:52;12.30;;;7.05;;
77938;SDS011;67136;47.546;21.630;2023-04-06T15:50:56;11.03;;;7.33;;
77938;SDS011;67136;47.546;21.630;2023-04-06T15:53:59;13.00;;;7.33;;
77938;SDS011;67136;47.546;21.630;2023-04-06T15:57:02;14.02;;;6.70;;
77938;SDS011;67136;47.546;21.630;2023-04-06T16:00:05;12.15;;;6.30;;
77938;SDS011;67136;47.546;21.630;2023-04-06T16:03:09;14.77;;;7.62;;
77938;SDS011;67136;47.546;21.630;2023-04-06T16:06:13;15.33;;;7.40;;
77938;SDS011;67136;47.546;21.630;2023-04-06T16:09:15;12.80;;;7.47;;
77938;SDS011;67136;47.546;21.630;2023-04-06T16:12:18;14.45;;;8.27;;
77938;SDS011;67136;47.546;21.630;2023-04-06T16:15:21;15.02;;;8.25;;
77938;SDS011;67136;47.546;21.630;2023-04-06T16:18:23;16.20;;;7.37;;
77938;SDS011;67136;47.546;21.630;2023-04-06T16:21:26;12.83;;;7.90;;
77938;SDS011;67136;47.546;21.630;2023-04-06T16:24:29;13.67;;;7.93;;
77938;SDS011;67136;47.546;21.630;2023-04-06T16:27:32;14.20;;;7.40;;
77938;SDS011;67136;47.546;21.630;2023-04-06T16:30:35;11.20;;;7.00;;
77938;SDS011;67136;47.546;21.630;2023-04-06T16:33:38;14.15;;;8.43;;
77938;SDS011;67136;47.546;21.630;2023-04-06T16:36:43;14.97;;;8.63;;
77938;SDS011;67136;47.546;21.630;2023-04-06T16:39:46;14.63;;;8.33;;
77938;SDS011;67136;47.546;21.630;2023-04-06T16:42:49;17.95;;;8.35;;
77938;SDS011;67136;47.546;21.630;2023-04-06T16:45:51;15.80;;;8.10;;
77938;SDS011;67136;47.546;21.630;2023-04-06T16:48:54;14.80;;;8.68;;
77938;SDS011;67136;47.546;21.630;2023-04-06T16:51:57;16.20;;;8.00;;
77938;SDS011;67136;47.546;21.630;2023-04-06T16:55:03;13.50;;;7.77;;
77938;SDS011;67136;47.546;21.630;2023-04-06T16:58:06;16.58;;;8.73;;
77938;SDS011;67136;47.546;21.630;2023-04-06T17:01:16;19.73;;;9.15;;
77938;SDS011;67136;47.546;21.630;2023-04-06T17:04:30;17.70;;;9.35;;
77938;SDS011;67136;47.546;21.630;2023-04-06T17:07:33;16.10;;;8.40;;
77938;SDS011;67136;47.546;21.630;2023-04-06T17:10:37;17.43;;;9.20;;
77938;SDS011;67136;47.546;21.630;2023-04-06T17:13:52;17.73;;;8.93;;
77938;SDS011;67136;47.546;21.630;2023-04-06T17:16:55;17.85;;;9.32;;
77938;SDS011;67136;47.546;21.630;2023-04-06T17:19:58;17.15;;;8.88;;
77938;SDS011;67136;47.546;21.630;2023-04-06T17:23:00;17.37;;;9.30;;
77938;SDS011;67136;47.546;21.630;2023-04-06T17:26:03;17.50;;;8.57;;
77938;SDS011;67136;47.546;21.630;2023-04-06T17:29:06;17.70;;;9.05;;
77938;SDS011;67136;47.546;21.630;2023-04-06T17:32:09;17.77;;;9.60;;
77938;SDS011;67136;47.546;21.630;2023-04-06T17:35:12;17.52;;;9.65;;
77938;SDS011;67136;47.546;21.630;2023-04-06T17:38:15;18.80;;;9.60;;
77938;SDS011;67136;47.546;21.630;2023-04-06T17:41:17;16.60;;;9.93;;
77938;SDS011;67136;47.546;21.630;2023-04-06T17:44:20;18.27;;;9.82;;
77938;SDS011;67136;47.546;21.630;2023-04-06T17:47:23;21.75;;;9.75;;
77938;SDS011;67136;47.546;21.630;2023-04-06T17:50:31;18.75;;;10.00;;
77938;SDS011;67136;47.546;21.630;2023-04-06T17:53:33;21.40;;;9.67;;
77938;SDS011;67136;47.546;21.630;2023-04-06T17:56:38;15.18;;;8.88;;
77938;SDS011;67136;47.546;21.630;2023-04-06T17:59:41;17.87;;;9.75;;
77938;SDS011;67136;47.546;21.630;2023-04-06T18:02:47;24.02;;;9.35;;
77938;SDS011;67136;47.546;21.630;2023-04-06T18:05:50;18.80;;;10.35;;
77938;SDS011;67136;47.546;21.630;2023-04-06T18:08:53;20.47;;;10.27;;
77938;SDS011;67136;47.546;21.630;2023-04-06T18:11:56;20.60;;;10.80;;